Terminal Aerodrome Forecast
Issued by NWS Portland, OR

Home | Current Version | Previous Version | Text Only | Print | Product List | Glossary On
Versions: 1 2 3 4 5 6 7 8 9 10 11 12 13 14 15 16 17 18 19 20 21 22 23 24 25 26 27 28 29 30 31 32 33 34 35 36 37 38 39 40 41 42 43 44 45 46 47 48 49 50
626
FTUS46 KPQR 042328 AAA
TAFHIO
TAF AMD
KHIO 042328Z 0423/0524 29007KT P6SM VCSH SCT035 SCT050
      TEMPO 0500/0501 -SHRA BKN028 OVC040
     FM050600 VRB03KT P6SM -RA SCT025 BKN040
     FM051300 17010KT P6SM -RASN SCT015 OVC025
     FM051800 22004KT P6SM -SHRA SCT015 BKN025=

USA.gov is the U.S. government's official web portal to all federal, state and local government web resources and services.